KAYS

Waycross-Ware County Airport

Waycross, Georgia, USA
METAR KAYS 162215Z AUTO 34004KT 10SM CLR 14/M06 A3023 RMK AO2 T01431063
Observed Flight Rules
Jan-16 @ 22:15 UTC (16 minutes ago) Visual Flight Rules
Wind Visibility Clouds
340° at 4 knots 10 miles
  • Clear skies
Temperatures Readings
Current 14°C / 57°F
Dewpoint -6°C / 21°F
Humidity 25%
Altimeter 30.23" Hg
Pressure 1023.72 hPa
Elevation 46
METAR KAYS 162215Z AUTO 34004KT 10SM CLR 14/M06 A3023 RMK AO2 T01431063
Observed Flight Rules
Jan-16 @ 22:15 UTC
(16 minutes ago)
VFR
Wind Visibility
340° at 4 knots 10 miles
Clouds
  • Clear skies
Temperature Dewpoint
14°C / 57°F -6°C / 21°F
Humidity Altimeter Pressure
25% 30.23" Hg 1023.72 hPa